sensor_id;sensor_type;location;lat;lon;timestamp;temperature;humidity
81800;DHT22;71195;52.528;5.704;2024-02-15T00:00:48;13.30;73.20
81800;DHT22;71195;52.528;5.704;2024-02-15T00:03:17;13.30;73.30
81800;DHT22;71195;52.528;5.704;2024-02-15T00:05:47;13.30;73.20
81800;DHT22;71195;52.528;5.704;2024-02-15T00:08:16;13.30;73.20
81800;DHT22;71195;52.528;5.704;2024-02-15T00:10:46;13.30;73.30
81800;DHT22;71195;52.528;5.704;2024-02-15T00:13:18;13.30;73.20
81800;DHT22;71195;52.528;5.704;2024-02-15T00:15:49;13.40;73.20
81800;DHT22;71195;52.528;5.704;2024-02-15T00:18:18;13.30;73.10
81800;DHT22;71195;52.528;5.704;2024-02-15T00:20:47;13.40;73.20
81800;DHT22;71195;52.528;5.704;2024-02-15T00:23:17;13.40;73.10
81800;DHT22;71195;52.528;5.704;2024-02-15T00:25:46;13.40;73.20
81800;DHT22;71195;52.528;5.704;2024-02-15T00:28:18;13.30;73.20
81800;DHT22;71195;52.528;5.704;2024-02-15T00:30:48;13.40;73.20
81800;DHT22;71195;52.528;5.704;2024-02-15T00:33:17;13.30;73.20
81800;DHT22;71195;52.528;5.704;2024-02-15T00:35:48;13.40;73.20
81800;DHT22;71195;52.528;5.704;2024-02-15T00:38:18;13.40;73.20
81800;DHT22;71195;52.528;5.704;2024-02-15T00:40:47;13.40;73.20
81800;DHT22;71195;52.528;5.704;2024-02-15T00:43:19;13.40;73.20
81800;DHT22;71195;52.528;5.704;2024-02-15T00:45:49;13.40;73.20
81800;DHT22;71195;52.528;5.704;2024-02-15T00:48:18;13.40;73.20
81800;DHT22;71195;52.528;5.704;2024-02-15T00:50:47;13.30;73.20
81800;DHT22;71195;52.528;5.704;2024-02-15T00:53:16;13.30;73.30
81800;DHT22;71195;52.528;5.704;2024-02-15T00:55:46;13.30;73.20
81800;DHT22;71195;52.528;5.704;2024-02-15T00:58:15;13.40;73.20
81800;DHT22;71195;52.528;5.704;2024-02-15T01:00:47;13.40;73.20
81800;DHT22;71195;52.528;5.704;2024-02-15T01:03:16;13.40;73.20
81800;DHT22;71195;52.528;5.704;2024-02-15T01:05:46;13.40;73.20
81800;DHT22;71195;52.528;5.704;2024-02-15T01:08:15;13.40;73.20
81800;DHT22;71195;52.528;5.704;2024-02-15T01:10:46;13.50;73.20
81800;DHT22;71195;52.528;5.704;2024-02-15T01:13:15;13.50;73.20
81800;DHT22;71195;52.528;5.704;2024-02-15T01:15:47;13.50;73.20
81800;DHT22;71195;52.528;5.704;2024-02-15T01:18:16;13.50;73.10
81800;DHT22;71195;52.528;5.704;2024-02-15T01:20:45;13.50;73.20
81800;DHT22;71195;52.528;5.704;2024-02-15T01:23:14;13.50;73.20
81800;DHT22;71195;52.528;5.704;2024-02-15T01:25:44;13.50;73.20
81800;DHT22;71195;52.528;5.704;2024-02-15T01:28:13;13.50;73.20
81800;DHT22;71195;52.528;5.704;2024-02-15T01:30:42;13.50;73.20
81800;DHT22;71195;52.528;5.704;2024-02-15T01:33:15;13.50;73.20
81800;DHT22;71195;52.528;5.704;2024-02-15T01:35:44;13.50;73.20
81800;DHT22;71195;52.528;5.704;2024-02-15T01:38:15;13.50;73.20
81800;DHT22;71195;52.528;5.704;2024-02-15T01:40:44;13.60;73.10
81800;DHT22;71195;52.528;5.704;2024-02-15T01:43:15;13.60;73.10
81800;DHT22;71195;52.528;5.704;2024-02-15T01:45:44;13.60;73.00
81800;DHT22;71195;52.528;5.704;2024-02-15T01:48:17;13.60;73.00
81800;DHT22;71195;52.528;5.704;2024-02-15T01:50:46;13.60;73.00
81800;DHT22;71195;52.528;5.704;2024-02-15T01:53:18;13.60;73.00
81800;DHT22;71195;52.528;5.704;2024-02-15T01:55:47;13.60;73.10
81800;DHT22;71195;52.528;5.704;2024-02-15T01:58:16;13.60;73.20
81800;DHT22;71195;52.528;5.704;2024-02-15T02:00:47;13.70;73.10
81800;DHT22;71195;52.528;5.704;2024-02-15T02:03:20;13.70;73.20
81800;DHT22;71195;52.528;5.704;2024-02-15T02:05:50;13.70;73.20
81800;DHT22;71195;52.528;5.704;2024-02-15T02:08:19;13.70;73.10
81800;DHT22;71195;52.528;5.704;2024-02-15T02:10:48;13.70;73.20
81800;DHT22;71195;52.528;5.704;2024-02-15T02:13:17;13.80;73.00
81800;DHT22;71195;52.528;5.704;2024-02-15T02:15:46;13.80;73.00
81800;DHT22;71195;52.528;5.704;2024-02-15T02:18:18;13.80;73.00
81800;DHT22;71195;52.528;5.704;2024-02-15T02:20:47;13.80;73.00
81800;DHT22;71195;52.528;5.704;2024-02-15T02:23:17;13.80;73.10
81800;DHT22;71195;52.528;5.704;2024-02-15T02:25:52;13.70;73.20
81800;DHT22;71195;52.528;5.704;2024-02-15T02:28:23;13.80;73.20
81800;DHT22;71195;52.528;5.704;2024-02-15T02:30:52;13.70;73.20
81800;DHT22;71195;52.528;5.704;2024-02-15T02:33:22;13.80;73.20
81800;DHT22;71195;52.528;5.704;2024-02-15T02:35:54;13.70;73.30
81800;DHT22;71195;52.528;5.704;2024-02-15T02:38:24;13.70;73.30
81800;DHT22;71195;52.528;5.704;2024-02-15T02:40:57;13.70;73.30
81800;DHT22;71195;52.528;5.704;2024-02-15T02:43:26;13.70;73.30
81800;DHT22;71195;52.528;5.704;2024-02-15T02:45:55;13.70;73.30
81800;DHT22;71195;52.528;5.704;2024-02-15T02:48:24;13.70;73.30
81800;DHT22;71195;52.528;5.704;2024-02-15T02:50:53;13.70;73.40
81800;DHT22;71195;52.528;5.704;2024-02-15T02:53:23;13.60;73.40
81800;DHT22;71195;52.528;5.704;2024-02-15T02:55:53;13.70;73.30
81800;DHT22;71195;52.528;5.704;2024-02-15T02:58:25;13.70;73.30
81800;DHT22;71195;52.528;5.704;2024-02-15T03:00:55;13.70;73.30
81800;DHT22;71195;52.528;5.704;2024-02-15T03:03:26;13.70;73.30
81800;DHT22;71195;52.528;5.704;2024-02-15T03:05:56;13.70;73.30
81800;DHT22;71195;52.528;5.704;2024-02-15T03:08:25;13.70;73.30
81800;DHT22;71195;52.528;5.704;2024-02-15T03:10:54;13.70;73.20
81800;DHT22;71195;52.528;5.704;2024-02-15T03:13:26;13.70;73.20
81800;DHT22;71195;52.528;5.704;2024-02-15T03:15:55;13.70;73.20
81800;DHT22;71195;52.528;5.704;2024-02-15T03:18:25;13.70;73.30
81800;DHT22;71195;52.528;5.704;2024-02-15T03:20:54;13.70;73.30
81800;DHT22;71195;52.528;5.704;2024-02-15T03:23:23;13.70;73.30
81800;DHT22;71195;52.528;5.704;2024-02-15T03:25:52;13.70;73.40
81800;DHT22;71195;52.528;5.704;2024-02-15T03:28:22;13.70;73.20
81800;DHT22;71195;52.528;5.704;2024-02-15T03:30:53;13.90;73.20
81800;DHT22;71195;52.528;5.704;2024-02-15T03:33:23;13.80;73.20
81800;DHT22;71195;52.528;5.704;2024-02-15T03:35:55;13.70;73.30
81800;DHT22;71195;52.528;5.704;2024-02-15T03:38:25;13.80;73.30
81800;DHT22;71195;52.528;5.704;2024-02-15T03:40:55;13.80;73.30
81800;DHT22;71195;52.528;5.704;2024-02-15T03:43:24;13.80;73.30
81800;DHT22;71195;52.528;5.704;2024-02-15T03:45:56;13.80;73.30
81800;DHT22;71195;52.528;5.704;2024-02-15T03:48:25;13.80;73.30
81800;DHT22;71195;52.528;5.704;2024-02-15T03:50:54;13.80;73.30
81800;DHT22;71195;52.528;5.704;2024-02-15T03:53:24;13.80;73.40
81800;DHT22;71195;52.528;5.704;2024-02-15T03:55:57;13.80;73.30
81800;DHT22;71195;52.528;5.704;2024-02-15T03:58:26;13.80;73.40
81800;DHT22;71195;52.528;5.704;2024-02-15T04:00:59;13.80;73.40
81800;DHT22;71195;52.528;5.704;2024-02-15T04:03:30;13.90;73.40
81800;DHT22;71195;52.528;5.704;2024-02-15T04:06:00;13.90;73.30
81800;DHT22;71195;52.528;5.704;2024-02-15T04:08:30;13.90;73.30
81800;DHT22;71195;52.528;5.704;2024-02-15T04:11:00;13.90;73.20
81800;DHT22;71195;52.528;5.704;2024-02-15T04:13:30;13.90;73.20
81800;DHT22;71195;52.528;5.704;2024-02-15T04:16:02;13.80;73.30
81800;DHT22;71195;52.528;5.704;2024-02-15T04:18:31;13.90;73.30
81800;DHT22;71195;52.528;5.704;2024-02-15T04:21:00;13.80;73.30
81800;DHT22;71195;52.528;5.704;2024-02-15T04:23:32;13.80;73.40
81800;DHT22;71195;52.528;5.704;2024-02-15T04:26:01;13.80;73.20
81800;DHT22;71195;52.528;5.704;2024-02-15T04:28:30;13.80;73.30
81800;DHT22;71195;52.528;5.704;2024-02-15T04:31:02;13.80;73.20
81800;DHT22;71195;52.528;5.704;2024-02-15T04:33:34;13.90;73.20
81800;DHT22;71195;52.528;5.704;2024-02-15T04:36:04;13.90;73.20
81800;DHT22;71195;52.528;5.704;2024-02-15T04:38:34;13.90;73.20
81800;DHT22;71195;52.528;5.704;2024-02-15T04:41:03;13.90;73.20
81800;DHT22;71195;52.528;5.704;2024-02-15T04:43:36;13.90;73.10
81800;DHT22;71195;52.528;5.704;2024-02-15T04:46:09;13.90;73.20
81800;DHT22;71195;52.528;5.704;2024-02-15T04:48:40;13.90;73.20
81800;DHT22;71195;52.528;5.704;2024-02-15T04:51:10;13.90;73.20
81800;DHT22;71195;52.528;5.704;2024-02-15T04:53:39;13.90;73.20
81800;DHT22;71195;52.528;5.704;2024-02-15T04:56:08;13.90;73.20
81800;DHT22;71195;52.528;5.704;2024-02-15T04:58:40;13.90;73.20
81800;DHT22;71195;52.528;5.704;2024-02-15T05:01:16;13.90;73.20
81800;DHT22;71195;52.528;5.704;2024-02-15T05:03:45;13.90;73.30
81800;DHT22;71195;52.528;5.704;2024-02-15T05:06:14;13.90;73.30
81800;DHT22;71195;52.528;5.704;2024-02-15T05:08:43;13.90;73.30
81800;DHT22;71195;52.528;5.704;2024-02-15T05:11:13;13.90;73.30
81800;DHT22;71195;52.528;5.704;2024-02-15T05:13:44;13.90;73.20
81800;DHT22;71195;52.528;5.704;2024-02-15T05:16:16;13.90;73.20
81800;DHT22;71195;52.528;5.704;2024-02-15T05:18:45;13.90;73.20
81800;DHT22;71195;52.528;5.704;2024-02-15T05:21:14;13.90;73.10
81800;DHT22;71195;52.528;5.704;2024-02-15T05:23:43;13.80;73.30
81800;DHT22;71195;52.528;5.704;2024-02-15T05:26:12;13.90;73.20
81800;DHT22;71195;52.528;5.704;2024-02-15T05:28:42;13.90;73.20
81800;DHT22;71195;52.528;5.704;2024-02-15T05:31:15;13.90;73.20
81800;DHT22;71195;52.528;5.704;2024-02-15T05:33:46;13.90;73.10
81800;DHT22;71195;52.528;5.704;2024-02-15T05:36:16;13.90;73.20
81800;DHT22;71195;52.528;5.704;2024-02-15T05:38:47;13.90;73.20
81800;DHT22;71195;52.528;5.704;2024-02-15T05:41:17;13.90;73.20
81800;DHT22;71195;52.528;5.704;2024-02-15T05:43:47;13.90;73.20
81800;DHT22;71195;52.528;5.704;2024-02-15T05:46:21;13.90;73.20
81800;DHT22;71195;52.528;5.704;2024-02-15T05:48:53;13.90;73.20
81800;DHT22;71195;52.528;5.704;2024-02-15T05:51:23;13.80;73.30
81800;DHT22;71195;52.528;5.704;2024-02-15T05:53:52;13.70;73.30
81800;DHT22;71195;52.528;5.704;2024-02-15T05:56:24;13.70;73.40
81800;DHT22;71195;52.528;5.704;2024-02-15T05:58:55;13.70;73.40
81800;DHT22;71195;52.528;5.704;2024-02-15T06:01:27;13.70;73.40
81800;DHT22;71195;52.528;5.704;2024-02-15T06:03:56;13.70;73.50
81800;DHT22;71195;52.528;5.704;2024-02-15T06:06:26;13.70;73.40
81800;DHT22;71195;52.528;5.704;2024-02-15T06:08:55;13.70;73.50
81800;DHT22;71195;52.528;5.704;2024-02-15T06:11:26;13.70;73.50
81800;DHT22;71195;52.528;5.704;2024-02-15T06:13:55;13.70;73.50
81800;DHT22;71195;52.528;5.704;2024-02-15T06:16:27;13.70;73.50
81800;DHT22;71195;52.528;5.704;2024-02-15T06:18:56;13.70;73.50
81800;DHT22;71195;52.528;5.704;2024-02-15T06:21:26;13.70;73.50
81800;DHT22;71195;52.528;5.704;2024-02-15T06:23:55;13.70;73.50
81800;DHT22;71195;52.528;5.704;2024-02-15T06:26:25;13.70;73.40
81800;DHT22;71195;52.528;5.704;2024-02-15T06:28:54;13.70;73.50
81800;DHT22;71195;52.528;5.704;2024-02-15T06:31:38;13.70;73.50
81800;DHT22;71195;52.528;5.704;2024-02-15T06:34:21;13.70;73.50
81800;DHT22;71195;52.528;5.704;2024-02-15T06:37:03;13.70;73.60
81800;DHT22;71195;52.528;5.704;2024-02-15T06:39:44;13.70;73.50
81800;DHT22;71195;52.528;5.704;2024-02-15T06:42:16;13.70;73.50
81800;DHT22;71195;52.528;5.704;2024-02-15T06:44:48;13.70;73.50
81800;DHT22;71195;52.528;5.704;2024-02-15T06:47:21;13.70;73.50
81800;DHT22;71195;52.528;5.704;2024-02-15T06:49:51;13.70;73.50
81800;DHT22;71195;52.528;5.704;2024-02-15T06:52:21;13.70;73.50
81800;DHT22;71195;52.528;5.704;2024-02-15T06:54:50;13.70;73.40
81800;DHT22;71195;52.528;5.704;2024-02-15T06:57:20;13.70;73.50
81800;DHT22;71195;52.528;5.704;2024-02-15T06:59:49;13.70;73.50
81800;DHT22;71195;52.528;5.704;2024-02-15T07:02:21;13.80;73.50
81800;DHT22;71195;52.528;5.704;2024-02-15T07:04:50;13.80;73.40
81800;DHT22;71195;52.528;5.704;2024-02-15T07:07:19;13.80;73.40
81800;DHT22;71195;52.528;5.704;2024-02-15T07:09:48;13.70;73.70
81800;DHT22;71195;52.528;5.704;2024-02-15T07:12:18;13.70;73.50
81800;DHT22;71195;52.528;5.704;2024-02-15T07:14:48;13.80;73.50
81800;DHT22;71195;52.528;5.704;2024-02-15T07:17:17;13.80;73.50
81800;DHT22;71195;52.528;5.704;2024-02-15T07:19:49;13.80;73.50
81800;DHT22;71195;52.528;5.704;2024-02-15T07:22:18;13.90;73.50
81800;DHT22;71195;52.528;5.704;2024-02-15T07:24:48;13.90;73.50
81800;DHT22;71195;52.528;5.704;2024-02-15T07:27:18;13.80;73.50
81800;DHT22;71195;52.528;5.704;2024-02-15T07:29:49;13.90;73.60
81800;DHT22;71195;52.528;5.704;2024-02-15T07:32:19;13.80;73.50
81800;DHT22;71195;52.528;5.704;2024-02-15T07:34:50;13.90;73.60
81800;DHT22;71195;52.528;5.704;2024-02-15T07:37:20;13.90;73.60
81800;DHT22;71195;52.528;5.704;2024-02-15T07:39:52;13.80;73.60
81800;DHT22;71195;52.528;5.704;2024-02-15T07:42:21;13.80;73.50
81800;DHT22;71195;52.528;5.704;2024-02-15T07:44:51;13.70;73.70
81800;DHT22;71195;52.528;5.704;2024-02-15T07:47:21;13.80;73.60
81800;DHT22;71195;52.528;5.704;2024-02-15T07:49:53;13.90;73.60
81800;DHT22;71195;52.528;5.704;2024-02-15T07:52:22;13.90;73.60
81800;DHT22;71195;52.528;5.704;2024-02-15T07:54:51;13.80;73.60
81800;DHT22;71195;52.528;5.704;2024-02-15T07:57:21;13.80;73.60
81800;DHT22;71195;52.528;5.704;2024-02-15T07:59:51;13.80;73.70
81800;DHT22;71195;52.528;5.704;2024-02-15T08:02:20;13.80;73.70
81800;DHT22;71195;52.528;5.704;2024-02-15T08:04:53;13.80;73.70
81800;DHT22;71195;52.528;5.704;2024-02-15T08:07:23;13.80;73.70
81800;DHT22;71195;52.528;5.704;2024-02-15T08:09:57;13.80;73.80
81800;DHT22;71195;52.528;5.704;2024-02-15T08:12:27;13.80;73.90
81800;DHT22;71195;52.528;5.704;2024-02-15T08:14:56;13.80;73.80
81800;DHT22;71195;52.528;5.704;2024-02-15T08:17:25;13.90;73.80
81800;DHT22;71195;52.528;5.704;2024-02-15T08:19:58;13.90;73.70
81800;DHT22;71195;52.528;5.704;2024-02-15T08:22:27;13.90;73.80
81800;DHT22;71195;52.528;5.704;2024-02-15T08:24:57;13.90;73.70
81800;DHT22;71195;52.528;5.704;2024-02-15T08:27:26;13.90;73.80
81800;DHT22;71195;52.528;5.704;2024-02-15T08:29:58;13.90;73.70
81800;DHT22;71195;52.528;5.704;2024-02-15T08:32:29;13.90;73.70
81800;DHT22;71195;52.528;5.704;2024-02-15T08:35:01;13.90;73.70
81800;DHT22;71195;52.528;5.704;2024-02-15T08:37:31;13.90;73.80
81800;DHT22;71195;52.528;5.704;2024-02-15T08:40:01;13.90;73.70
81800;DHT22;71195;52.528;5.704;2024-02-15T08:42:31;13.90;73.80
81800;DHT22;71195;52.528;5.704;2024-02-15T08:45:00;13.90;73.70
81800;DHT22;71195;52.528;5.704;2024-02-15T08:47:29;13.90;73.80
81800;DHT22;71195;52.528;5.704;2024-02-15T08:50:01;13.90;73.80
81800;DHT22;71195;52.528;5.704;2024-02-15T08:52:30;13.90;73.80
81800;DHT22;71195;52.528;5.704;2024-02-15T08:54:59;13.90;73.80
81800;DHT22;71195;52.528;5.704;2024-02-15T08:57:28;13.90;73.80
81800;DHT22;71195;52.528;5.704;2024-02-15T08:59:57;13.90;73.80
81800;DHT22;71195;52.528;5.704;2024-02-15T09:02:30;13.90;73.80
81800;DHT22;71195;52.528;5.704;2024-02-15T09:05:02;13.90;73.80
81800;DHT22;71195;52.528;5.704;2024-02-15T09:07:31;14.00;73.80
81800;DHT22;71195;52.528;5.704;2024-02-15T09:10:00;14.00;73.80
81800;DHT22;71195;52.528;5.704;2024-02-15T09:12:29;14.00;73.80
81800;DHT22;71195;52.528;5.704;2024-02-15T09:14:59;14.00;73.80
81800;DHT22;71195;52.528;5.704;2024-02-15T09:17:29;14.00;73.80
81800;DHT22;71195;52.528;5.704;2024-02-15T09:20:01;14.00;73.70
81800;DHT22;71195;52.528;5.704;2024-02-15T09:22:32;14.10;73.70
81800;DHT22;71195;52.528;5.704;2024-02-15T09:25:02;14.10;73.70
81800;DHT22;71195;52.528;5.704;2024-02-15T09:27:31;14.10;73.60
81800;DHT22;71195;52.528;5.704;2024-02-15T09:30:01;14.10;73.60
81800;DHT22;71195;52.528;5.704;2024-02-15T09:32:33;14.10;73.70
81800;DHT22;71195;52.528;5.704;2024-02-15T09:35:07;14.20;73.70
81800;DHT22;71195;52.528;5.704;2024-02-15T09:37:42;14.20;73.60
81800;DHT22;71195;52.528;5.704;2024-02-15T09:40:12;14.20;73.60
81800;DHT22;71195;52.528;5.704;2024-02-15T09:42:43;14.30;73.60
81800;DHT22;71195;52.528;5.704;2024-02-15T09:45:14;14.30;73.60
81800;DHT22;71195;52.528;5.704;2024-02-15T09:47:45;14.30;73.60
81800;DHT22;71195;52.528;5.704;2024-02-15T09:50:18;14.30;73.70
81800;DHT22;71195;52.528;5.704;2024-02-15T09:52:50;14.20;73.70
81800;DHT22;71195;52.528;5.704;2024-02-15T09:55:20;14.20;73.70
81800;DHT22;71195;52.528;5.704;2024-02-15T09:57:50;14.20;73.70
81800;DHT22;71195;52.528;5.704;2024-02-15T10:00:20;14.20;73.80
81800;DHT22;71195;52.528;5.704;2024-02-15T10:02:51;14.10;73.80
81800;DHT22;71195;52.528;5.704;2024-02-15T10:05:24;14.20;73.80
81800;DHT22;71195;52.528;5.704;2024-02-15T10:07:53;14.20;73.80
81800;DHT22;71195;52.528;5.704;2024-02-15T10:10:24;14.20;73.80
81800;DHT22;71195;52.528;5.704;2024-02-15T10:12:54;14.20;73.80
81800;DHT22;71195;52.528;5.704;2024-02-15T10:15:27;14.20;73.90
81800;DHT22;71195;52.528;5.704;2024-02-15T10:17:59;14.20;73.80
81800;DHT22;71195;52.528;5.704;2024-02-15T10:20:32;14.20;73.80
81800;DHT22;71195;52.528;5.704;2024-02-15T10:23:10;14.30;73.80
81800;DHT22;71195;52.528;5.704;2024-02-15T10:25:40;14.30;73.80
81800;DHT22;71195;52.528;5.704;2024-02-15T10:28:10;14.30;73.80
81800;DHT22;71195;52.528;5.704;2024-02-15T10:30:42;14.20;73.80
81800;DHT22;71195;52.528;5.704;2024-02-15T10:33:19;14.20;73.80
81800;DHT22;71195;52.528;5.704;2024-02-15T10:36:05;14.30;73.80
81800;DHT22;71195;52.528;5.704;2024-02-15T10:38:34;14.30;73.70
81800;DHT22;71195;52.528;5.704;2024-02-15T10:41:04;14.30;73.60
81800;DHT22;71195;52.528;5.704;2024-02-15T10:43:35;14.30;73.80
81800;DHT22;71195;52.528;5.704;2024-02-15T10:46:04;14.30;73.70
81800;DHT22;71195;52.528;5.704;2024-02-15T10:48:34;14.30;73.60
81800;DHT22;71195;52.528;5.704;2024-02-15T10:51:10;14.30;73.60
81800;DHT22;71195;52.528;5.704;2024-02-15T10:53:45;14.40;73.60
81800;DHT22;71195;52.528;5.704;2024-02-15T10:56:18;14.40;73.60
81800;DHT22;71195;52.528;5.704;2024-02-15T10:58:50;14.40;73.70
81800;DHT22;71195;52.528;5.704;2024-02-15T11:01:25;14.40;73.70
81800;DHT22;71195;52.528;5.704;2024-02-15T11:03:59;14.40;73.70
81800;DHT22;71195;52.528;5.704;2024-02-15T11:06:34;14.40;73.60
81800;DHT22;71195;52.528;5.704;2024-02-15T11:09:04;14.40;73.70
81800;DHT22;71195;52.528;5.704;2024-02-15T11:11:37;14.50;73.50
81800;DHT22;71195;52.528;5.704;2024-02-15T11:14:23;14.50;73.50
81800;DHT22;71195;52.528;5.704;2024-02-15T11:16:52;14.60;73.50
81800;DHT22;71195;52.528;5.704;2024-02-15T11:19:40;14.50;73.50
81800;DHT22;71195;52.528;5.704;2024-02-15T11:22:15;14.50;73.50
81800;DHT22;71195;52.528;5.704;2024-02-15T11:24:48;14.60;73.50
81800;DHT22;71195;52.528;5.704;2024-02-15T11:27:25;14.60;73.50
81800;DHT22;71195;52.528;5.704;2024-02-15T11:29:56;14.60;73.40
81800;DHT22;71195;52.528;5.704;2024-02-15T11:32:42;14.70;73.30
81800;DHT22;71195;52.528;5.704;2024-02-15T11:35:17;14.70;73.30
81800;DHT22;71195;52.528;5.704;2024-02-15T11:37:51;14.70;73.30
81800;DHT22;71195;52.528;5.704;2024-02-15T11:40:20;14.70;73.30
81800;DHT22;71195;52.528;5.704;2024-02-15T11:42:52;14.70;73.50
81800;DHT22;71195;52.528;5.704;2024-02-15T11:45:23;14.70;73.40
81800;DHT22;71195;52.528;5.704;2024-02-15T11:47:54;14.70;73.30
81800;DHT22;71195;52.528;5.704;2024-02-15T11:50:23;14.80;73.30
81800;DHT22;71195;52.528;5.704;2024-02-15T11:53:06;14.80;73.30
81800;DHT22;71195;52.528;5.704;2024-02-15T11:55:36;14.80;73.30
81800;DHT22;71195;52.528;5.704;2024-02-15T11:58:07;14.80;73.30
81800;DHT22;71195;52.528;5.704;2024-02-15T12:00:48;14.80;73.30
81800;DHT22;71195;52.528;5.704;2024-02-15T12:03:29;14.80;73.40
81800;DHT22;71195;52.528;5.704;2024-02-15T12:06:11;14.80;73.40
81800;DHT22;71195;52.528;5.704;2024-02-15T12:08:55;14.80;73.40
81800;DHT22;71195;52.528;5.704;2024-02-15T12:11:37;14.80;73.40
81800;DHT22;71195;52.528;5.704;2024-02-15T12:14:18;14.80;73.40
81800;DHT22;71195;52.528;5.704;2024-02-15T12:17:04;14.80;73.50
81800;DHT22;71195;52.528;5.704;2024-02-15T12:19:47;14.80;73.40
81800;DHT22;71195;52.528;5.704;2024-02-15T12:22:22;14.80;73.40
81800;DHT22;71195;52.528;5.704;2024-02-15T12:24:59;14.80;73.40
81800;DHT22;71195;52.528;5.704;2024-02-15T12:27:32;14.80;73.50
81800;DHT22;71195;52.528;5.704;2024-02-15T12:30:01;14.80;73.50
81800;DHT22;71195;52.528;5.704;2024-02-15T12:32:33;14.80;73.50
81800;DHT22;71195;52.528;5.704;2024-02-15T12:35:12;14.90;73.40
81800;DHT22;71195;52.528;5.704;2024-02-15T12:37:43;14.90;73.30
81800;DHT22;71195;52.528;5.704;2024-02-15T12:40:16;14.90;73.30
81800;DHT22;71195;52.528;5.704;2024-02-15T12:42:48;15.00;73.30
81800;DHT22;71195;52.528;5.704;2024-02-15T12:45:17;15.00;73.30
81800;DHT22;71195;52.528;5.704;2024-02-15T12:47:48;15.00;73.20
81800;DHT22;71195;52.528;5.704;2024-02-15T12:50:19;15.00;73.20
81800;DHT22;71195;52.528;5.704;2024-02-15T12:52:49;15.00;73.30
81800;DHT22;71195;52.528;5.704;2024-02-15T12:55:24;15.00;73.30
81800;DHT22;71195;52.528;5.704;2024-02-15T12:57:54;15.00;73.20
81800;DHT22;71195;52.528;5.704;2024-02-15T13:00:24;15.00;73.20
81800;DHT22;71195;52.528;5.704;2024-02-15T13:02:55;15.10;73.30
81800;DHT22;71195;52.528;5.704;2024-02-15T13:05:26;15.10;73.30
81800;DHT22;71195;52.528;5.704;2024-02-15T13:07:55;15.10;73.30
81800;DHT22;71195;52.528;5.704;2024-02-15T13:10:28;15.10;73.30
81800;DHT22;71195;52.528;5.704;2024-02-15T13:12:58;15.20;73.30
81800;DHT22;71195;52.528;5.704;2024-02-15T13:15:27;15.10;73.30
81800;DHT22;71195;52.528;5.704;2024-02-15T13:17:59;15.20;73.40
81800;DHT22;71195;52.528;5.704;2024-02-15T13:20:30;15.20;73.40
81800;DHT22;71195;52.528;5.704;2024-02-15T13:23:03;15.20;73.40
81800;DHT22;71195;52.528;5.704;2024-02-15T13:25:37;15.30;73.30
81800;DHT22;71195;52.528;5.704;2024-02-15T13:28:06;15.30;73.30
81800;DHT22;71195;52.528;5.704;2024-02-15T13:30:35;15.30;73.20
81800;DHT22;71195;52.528;5.704;2024-02-15T13:33:04;15.30;73.30
81800;DHT22;71195;52.528;5.704;2024-02-15T13:35:33;15.30;73.30
81800;DHT22;71195;52.528;5.704;2024-02-15T13:38:03;15.40;73.30
81800;DHT22;71195;52.528;5.704;2024-02-15T13:40:37;15.40;73.30
81800;DHT22;71195;52.528;5.704;2024-02-15T13:43:08;15.40;73.30
81800;DHT22;71195;52.528;5.704;2024-02-15T13:45:39;15.50;73.20
81800;DHT22;71195;52.528;5.704;2024-02-15T13:48:11;15.50;73.10
81800;DHT22;71195;52.528;5.704;2024-02-15T13:50:41;15.60;73.20
81800;DHT22;71195;52.528;5.704;2024-02-15T13:53:10;15.70;73.00
81800;DHT22;71195;52.528;5.704;2024-02-15T13:55:42;15.80;73.00
81800;DHT22;71195;52.528;5.704;2024-02-15T13:58:11;15.80;72.90
81800;DHT22;71195;52.528;5.704;2024-02-15T14:00:41;15.90;72.90
81800;DHT22;71195;52.528;5.704;2024-02-15T14:03:11;15.90;73.00
81800;DHT22;71195;52.528;5.704;2024-02-15T14:05:41;16.00;72.90
81800;DHT22;71195;52.528;5.704;2024-02-15T14:08:13;16.00;72.90
81800;DHT22;71195;52.528;5.704;2024-02-15T14:10:45;16.10;72.90
81800;DHT22;71195;52.528;5.704;2024-02-15T14:13:15;16.20;72.90
81800;DHT22;71195;52.528;5.704;2024-02-15T14:15:44;16.20;72.80
81800;DHT22;71195;52.528;5.704;2024-02-15T14:18:13;16.20;72.80
81800;DHT22;71195;52.528;5.704;2024-02-15T14:20:44;16.40;72.80
81800;DHT22;71195;52.528;5.704;2024-02-15T14:23:14;16.40;72.80
81800;DHT22;71195;52.528;5.704;2024-02-15T14:25:48;16.50;72.70
81800;DHT22;71195;52.528;5.704;2024-02-15T14:28:19;16.60;72.60
81800;DHT22;71195;52.528;5.704;2024-02-15T14:30:48;16.60;72.60
81800;DHT22;71195;52.528;5.704;2024-02-15T14:33:30;16.60;72.50
81800;DHT22;71195;52.528;5.704;2024-02-15T14:35:59;16.60;72.50
81800;DHT22;71195;52.528;5.704;2024-02-15T14:38:30;16.60;72.50
81800;DHT22;71195;52.528;5.704;2024-02-15T14:41:03;16.60;72.60
81800;DHT22;71195;52.528;5.704;2024-02-15T14:43:32;16.50;72.60
81800;DHT22;71195;52.528;5.704;2024-02-15T14:46:01;16.50;72.70
81800;DHT22;71195;52.528;5.704;2024-02-15T14:48:31;16.50;72.70
81800;DHT22;71195;52.528;5.704;2024-02-15T14:51:00;16.60;72.70
81800;DHT22;71195;52.528;5.704;2024-02-15T14:53:30;16.60;72.60
81800;DHT22;71195;52.528;5.704;2024-02-15T14:56:02;16.60;72.60
81800;DHT22;71195;52.528;5.704;2024-02-15T14:58:32;16.60;72.50
81800;DHT22;71195;52.528;5.704;2024-02-15T15:01:01;16.60;72.50
81800;DHT22;71195;52.528;5.704;2024-02-15T15:03:31;16.50;72.40
81800;DHT22;71195;52.528;5.704;2024-02-15T15:06:04;16.50;72.40
81800;DHT22;71195;52.528;5.704;2024-02-15T15:08:45;16.50;72.50
81800;DHT22;71195;52.528;5.704;2024-02-15T15:11:30;16.40;72.50
81800;DHT22;71195;52.528;5.704;2024-02-15T15:14:11;16.40;72.40
81800;DHT22;71195;52.528;5.704;2024-02-15T15:16:40;16.40;72.50
81800;DHT22;71195;52.528;5.704;2024-02-15T15:19:09;16.30;72.70
81800;DHT22;71195;52.528;5.704;2024-02-15T15:21:39;16.30;72.60
81800;DHT22;71195;52.528;5.704;2024-02-15T15:24:09;16.30;72.50
81800;DHT22;71195;52.528;5.704;2024-02-15T15:26:42;16.20;72.50
81800;DHT22;71195;52.528;5.704;2024-02-15T15:29:11;16.20;72.40
81800;DHT22;71195;52.528;5.704;2024-02-15T15:31:40;16.20;72.30
81800;DHT22;71195;52.528;5.704;2024-02-15T15:34:09;16.20;72.40
81800;DHT22;71195;52.528;5.704;2024-02-15T15:36:39;16.10;72.40
81800;DHT22;71195;52.528;5.704;2024-02-15T15:39:08;16.10;72.50
81800;DHT22;71195;52.528;5.704;2024-02-15T15:41:37;16.10;72.40
81800;DHT22;71195;52.528;5.704;2024-02-15T15:44:09;16.10;72.30
81800;DHT22;71195;52.528;5.704;2024-02-15T15:46:38;16.10;72.30
81800;DHT22;71195;52.528;5.704;2024-02-15T15:49:08;16.00;72.30
81800;DHT22;71195;52.528;5.704;2024-02-15T15:51:41;16.00;72.20
81800;DHT22;71195;52.528;5.704;2024-02-15T15:54:10;16.00;72.20